Detall de PIREP

Printer-friendly versionPDF version

[2010/08/26 07:16:00]
Flight IATA:CT3111
Pilot Number:011
Company ICAO:CAT
Aircraft Type:A320/E
PAX:50
Departing Airport: LEPA
Destination Airport: LEBL
Alternate Airport:LFBO
Online: VATSIM
Route:ESPOR W2 NEPAL
Flight Level:FL160
No Slew and time accel
No pause
Crash detect
Detect pilot in Cockpit between each 30 and 45 minutes
07:16 Zero fuel Weight: 42043 Lbs, Fuel Weight: 2087 Lbs
07:16 VATSIM:LEPA 260700Z 00000KT 9999 FEW005 24/20 Q1018 NOSIG
07:16 VATSIM:LEBL 260700Z 31003KT 280V340 9000 NSC 24/20 Q1017 NOSIG
07:20 Parking Brakes off
07:26 Take-off
07:26 Take off Weight: 44056 Lbs
07:26 Wind: 220º @ 000 Knots Heading: 056º
07:26 POS N39º 33´ 08´´ E002º 43´ 17´´
07:26 Gear Up: 129 Knots
07:26 Flaps:3 at 129 Knots
07:27 Flaps:2 at 159 Knots
07:27 Flaps:1 at 165 Knots
07:27 Flaps:0 at 167 Knots
07:40 TOC
07:40 Fuel Weight: 1671 Lb
07:41 Wind:245º@000 Knots Heading: 333º Ground Speed: 267 Knots Altitude 16017 ft
07:51 TOD
07:51 Fuel Weight: 1349 Lb
07:56 Wind:232º@014 Knots Heading: 025º Ground Speed: 260 Knots Altitude 12109 ft
08:06 Flaps:1 at 164 Knots
08:07 Flaps:2 at 159 Knots
08:07 Flaps:3 at 153 Knots
08:08 Flaps:4 at 140 Knots
08:08 Gear Down: 139 Knots
08:08 Flaps:5 at 115 Knots
08:08 Flaps:6 at 104 Knots
08:11 Wind:241º@011 Knots Heading: 245º Ground Speed: 095 Knots Altitude 308 ft
08:11 TouchDown:Rate -216 ft/min Speed: 87 Knots
08:11 VATSIM:LEBL 260800Z 23011KT CAVOK 27/22 Q1016 NOSIG
08:11 Land
08:11 Wind:236º@011 Knots
08:11 Heading: 244º
08:11 Flight Duration: 00:45
08:11 Landing Weight: 43123 Lbs
08:11 POS N41º 18´ 00´´ E002º 05´ 12´´
08:15 Parking brakes on
08:15 Block to Block Duration: 00:55
08:15 Final Fuel: 1051 Lbls
08:15 Spent Fuel: 1036 Lbls
08:15 Flight Length: 108 NM
08:15 TOD Land Length: 72 NM

Exportar CSV

Powered by Drupal - Modified by Danger4k